Time;durP1;ratioP1;P1;durP2;ratioP2;P2;SDS_P1;SDS_P2;PMS_P1;PMS_P2;Temp;Humidity;BMP_temperature;BMP_pressure;BME280_temperature;BME280_humidity;BME280_pressure;Samples;Min_cycle;Max_cycle;Signal;HPM_P1;HPM_P2
2022/01/29 00:01:14;;;;;;;1.27;0.60;;;2.60;99.90;;;;;;5089275;28;20223;-74
2022/01/29 00:03:42;;;;;;;0.52;0.22;;;2.90;99.90;;;;;;5089906;28;20152;-73
2022/01/29 00:06:08;;;;;;;0.75;0.47;;;2.90;99.90;;;;;;5089991;28;20164;-74
2022/01/29 00:08:33;;;;;;;0.52;0.45;;;2.80;99.90;;;;;;5089755;28;20276;-75
2022/01/29 00:11:09;;;;;;;0.13;0.13;;;2.70;99.90;;;;;;5089912;28;20160;-74
2022/01/29 00:13:36;;;;;;;0.43;0.40;;;2.60;99.90;;;;;;5089842;28;20171;-74
2022/01/29 00:16:03;;;;;;;0.80;0.50;;;2.50;99.90;;;;;;5089719;28;20164;-74
2022/01/29 00:18:29;;;;;;;1.55;0.60;;;2.50;99.90;;;;;;5089661;28;20195;-74
2022/01/29 00:20:55;;;;;;;1.40;0.32;;;2.60;99.90;;;;;;5089764;28;20536;-74
2022/01/29 00:23:21;;;;;;;0.55;0.55;;;2.80;99.90;;;;;;5089726;28;20156;-73
2022/01/29 00:25:46;;;;;;;4.15;0.50;;;2.90;99.90;;;;;;5089739;28;20176;-74
2022/01/29 00:28:14;;;;;;;0.80;0.60;;;2.80;99.90;;;;;;5089535;28;20187;-74
2022/01/29 00:30:42;;;;;;;0.65;0.50;;;2.90;99.90;;;;;;5089596;28;20215;-75
2022/01/29 00:33:12;;;;;;;0.40;0.40;;;2.90;99.90;;;;;;5089748;28;20257;-74
2022/01/29 00:35:39;;;;;;;1.67;0.50;;;2.90;99.90;;;;;;5089354;28;20168;-75
2022/01/29 00:38:06;;;;;;;3.88;0.45;;;2.70;99.90;;;;;;5089275;28;20198;-74
2022/01/29 00:40:33;;;;;;;1.55;0.50;;;2.70;99.90;;;;;;5089437;28;20180;-73
2022/01/29 00:43:00;;;;;;;1.05;0.43;;;2.70;99.90;;;;;;5089518;28;20172;-74
2022/01/29 00:45:26;;;;;;;2.00;0.52;;;2.60;99.90;;;;;;5089659;28;20160;-74
2022/01/29 00:47:52;;;;;;;2.17;0.40;;;2.30;99.90;;;;;;5089419;28;20184;-73
2022/01/29 00:50:18;;;;;;;4.82;0.70;;;2.00;99.90;;;;;;5089300;28;20164;-74
2022/01/29 00:52:44;;;;;;;0.75;0.32;;;1.70;99.90;;;;;;5088959;28;20167;-74
2022/01/29 00:55:11;;;;;;;1.35;0.40;;;1.60;99.90;;;;;;5089227;28;20161;-73
2022/01/29 00:57:39;;;;;;;3.30;0.50;;;1.30;99.90;;;;;;5089121;28;20194;-74
2022/01/29 01:00:11;;;;;;;0.45;0.45;;;1.10;99.90;;;;;;5088828;28;20232;-73
2022/01/29 01:02:40;;;;;;;2.83;0.35;;;1.10;99.90;;;;;;5088980;28;20211;-73
2022/01/29 01:05:06;;;;;;;1.10;0.65;;;1.10;99.90;;;;;;5089013;28;20195;-73
2022/01/29 01:07:32;;;;;;;0.98;0.88;;;1.00;99.90;;;;;;5102860;28;20604;-73
2022/01/29 01:09:59;;;;;;;0.88;0.50;;;0.80;99.90;;;;;;5108137;28;20186;-74
2022/01/29 01:12:25;;;;;;;1.63;0.90;;;0.60;99.90;;;;;;5109318;28;20163;-73
2022/01/29 01:14:51;;;;;;;4.55;0.60;;;0.60;99.90;;;;;;5109364;28;20181;-73
2022/01/29 01:17:18;;;;;;;0.47;0.47;;;0.60;99.90;;;;;;5107955;28;20605;-73
2022/01/29 01:19:45;;;;;;;0.70;0.70;;;0.50;99.90;;;;;;5109279;28;20186;-72
2022/01/29 01:22:11;;;;;;;0.70;0.70;;;0.40;99.90;;;;;;5109002;28;20189;-73
2022/01/29 01:24:37;;;;;;;1.92;1.10;;;0.20;99.90;;;;;;5109179;28;20160;-73
2022/01/29 01:27:03;;;;;;;1.48;0.82;;;0.10;99.90;;;;;;5108952;28;20240;-73
2022/01/29 01:29:29;;;;;;;2.75;1.10;;;0.20;99.90;;;;;;5109040;28;20175;-73
2022/01/29 01:31:55;;;;;;;1.60;1.13;;;0.20;99.90;;;;;;5108949;28;20156;-72
2022/01/29 01:34:23;;;;;;;0.80;0.75;;;0.00;99.90;;;;;;5109106;28;20163;-72
2022/01/29 01:36:55;;;;;;;4.53;1.00;;;-0.10;99.90;;;;;;5108844;28;20187;-73
2022/01/29 01:39:30;;;;;;;1.27;0.88;;;0.00;99.90;;;;;;5109034;28;20159;-73
2022/01/29 01:42:04;;;;;;;1.42;1.10;;;0.00;99.90;;;;;;5109079;28;20198;-73
2022/01/29 01:44:49;;;;;;;2.05;1.83;;;-0.20;99.90;;;;;;5109142;28;20572;-73
2022/01/29 01:47:16;;;;;;;2.28;1.27;;;-0.30;99.90;;;;;;5109069;28;20195;-73
2022/01/29 01:49:43;;;;;;;1.83;1.08;;;-0.20;99.90;;;;;;5108974;28;20159;-73
2022/01/29 01:52:11;;;;;;;3.75;1.15;;;-0.30;99.90;;;;;;5109017;28;20163;-74
2022/01/29 01:54:39;;;;;;;1.73;0.82;;;-0.30;99.90;;;;;;5108842;28;20183;-74
2022/01/29 01:57:06;;;;;;;2.47;1.10;;;-0.40;99.90;;;;;;5108725;28;20183;-73
2022/01/29 01:59:33;;;;;;;1.50;0.95;;;-0.40;99.90;;;;;;5108690;28;20212;-73
2022/01/29 02:01:59;;;;;;;5.40;1.15;;;-0.50;99.90;;;;;;5107504;28;20207;-73
2022/01/29 02:04:25;;;;;;;2.50;1.17;;;-0.60;99.90;;;;;;5110805;28;20159;-73
2022/01/29 02:06:53;;;;;;;1.30;0.98;;;-0.70;99.90;;;;;;5112490;28;20198;-73
2022/01/29 02:09:22;;;;;;;2.40;0.73;;;-0.70;99.90;;;;;;5112673;28;20159;-73
2022/01/29 02:11:50;;;;;;;1.13;0.82;;;-0.80;99.90;;;;;;5112683;28;20188;-73
2022/01/29 02:14:18;;;;;;;0.70;0.70;;;-0.80;99.90;;;;;;5112549;28;20152;-73
2022/01/29 02:16:45;;;;;;;2.72;0.82;;;-0.80;99.90;;;;;;5112390;28;20272;-72
2022/01/29 02:19:11;;;;;;;1.33;0.77;;;-0.80;99.90;;;;;;5112479;28;20174;-73
2022/01/29 02:21:37;;;;;;;1.98;0.73;;;-0.90;99.90;;;;;;5112282;28;20187;-73
2022/01/29 02:24:04;;;;;;;1.00;0.68;;;-0.90;99.90;;;;;;5112388;28;20183;-72
2022/01/29 02:26:31;;;;;;;0.93;0.82;;;-1.00;99.90;;;;;;5112155;28;20187;-73
2022/01/29 02:28:57;;;;;;;5.22;1.25;;;-1.10;99.90;;;;;;5112043;28;20152;-73
2022/01/29 02:31:23;;;;;;;3.60;0.90;;;-1.00;99.90;;;;;;5112235;28;20168;-72
2022/01/29 02:33:50;;;;;;;1.58;0.85;;;-0.90;99.90;;;;;;5111855;28;20299;-72
2022/01/29 02:36:15;;;;;;;1.75;0.85;;;-0.80;99.90;;;;;;5111937;28;20194;-72
2022/01/29 02:38:41;;;;;;;1.65;0.65;;;-0.80;99.90;;;;;;5112099;28;20497;-73
2022/01/29 02:41:08;;;;;;;4.63;1.17;;;-0.80;99.90;;;;;;5111936;28;20216;-73
2022/01/29 02:43:48;;;;;;;1.75;0.95;;;-0.80;99.90;;;;;;5112071;28;20242;-73
2022/01/29 02:46:28;;;;;;;2.53;2.05;;;-0.70;99.90;;;;;;5111779;28;20191;-73
2022/01/29 02:48:57;;;;;;;1.55;0.90;;;-0.70;99.90;;;;;;5111755;28;20235;-73
2022/01/29 02:51:23;;;;;;;2.08;1.35;;;-0.80;99.90;;;;;;5111819;28;20183;-73
2022/01/29 02:53:49;;;;;;;1.52;1.25;;;-0.80;99.90;;;;;;5111837;28;20170;-73
2022/01/29 02:56:15;;;;;;;2.10;1.25;;;-0.80;99.90;;;;;;5111613;28;20187;-73
2022/01/29 02:58:41;;;;;;;4.55;1.25;;;-0.90;99.90;;;;;;5074496;28;20207;-73
2022/01/29 03:01:07;;;;;;;5.63;1.45;;;-0.80;99.90;;;;;;5071078;28;20223;-72
2022/01/29 03:03:33;;;;;;;1.23;0.95;;;-0.60;99.90;;;;;;5071207;28;20164;-73
2022/01/29 03:06:01;;;;;;;2.63;1.15;;;-0.50;99.90;;;;;;5070982;28;20216;-73
2022/01/29 03:08:28;;;;;;;2.83;1.27;;;-0.60;99.90;;;;;;5071075;28;20212;-72
2022/01/29 03:10:53;;;;;;;2.15;1.02;;;-0.40;99.90;;;;;;5070987;28;20164;-72
2022/01/29 03:13:19;;;;;;;2.05;1.00;;;-0.40;99.90;;;;;;5070949;28;20161;-73
2022/01/29 03:15:45;;;;;;;2.72;0.90;;;-0.40;99.90;;;;;;5070779;28;20224;-73
2022/01/29 03:18:11;;;;;;;6.05;1.75;;;-0.40;99.90;;;;;;5070928;28;20215;-74
2022/01/29 03:20:37;;;;;;;1.60;0.88;;;-0.30;99.90;;;;;;5070885;28;20200;-73
2022/01/29 03:23:03;;;;;;;2.78;0.93;;;-0.40;99.90;;;;;;5070939;28;20505;-73
2022/01/29 03:25:29;;;;;;;3.38;1.50;;;-0.60;99.90;;;;;;5070939;28;20216;-74
2022/01/29 03:27:55;;;;;;;3.00;0.90;;;-0.50;99.90;;;;;;5070750;28;20195;-74
2022/01/29 03:30:21;;;;;;;0.85;0.70;;;-0.60;99.90;;;;;;5070568;28;20161;-73
2022/01/29 03:32:46;;;;;;;1.15;0.68;;;-0.60;99.90;;;;;;5070676;28;20159;-74
2022/01/29 03:35:13;;;;;;;1.85;0.90;;;-0.80;99.90;;;;;;5070469;28;20216;-72
2022/01/29 03:37:39;;;;;;;0.85;0.70;;;-1.00;99.90;;;;;;5070371;28;20214;-74
2022/01/29 03:40:08;;;;;;;1.42;0.57;;;-1.00;99.90;;;;;;5070606;28;20244;-73
2022/01/29 03:42:44;;;;;;;3.47;0.80;;;-0.90;99.90;;;;;;5070473;28;20179;-73
2022/01/29 03:45:13;;;;;;;5.15;0.60;;;-0.90;99.90;;;;;;5070459;28;20152;-74
2022/01/29 03:47:39;;;;;;;0.80;0.70;;;-0.90;99.90;;;;;;5070311;28;20192;-73
2022/01/29 03:50:05;;;;;;;3.05;0.90;;;-0.90;99.90;;;;;;5070285;28;20593;-74
2022/01/29 03:52:32;;;;;;;1.45;0.77;;;-1.00;99.90;;;;;;5070339;28;20214;-73
2022/01/29 03:54:58;;;;;;;1.50;1.20;;;-1.00;99.90;;;;;;5070141;28;20625;-73
2022/01/29 03:57:23;;;;;;;1.75;0.90;;;-1.10;99.90;;;;;;5070003;28;20280;-73
2022/01/29 03:59:49;;;;;;;0.63;0.57;;;-1.20;99.90;;;;;;5069698;28;20220;-73
2022/01/29 04:02:15;;;;;;;0.63;0.57;;;-1.30;99.90;;;;;;5069938;28;20760;-72
2022/01/29 04:04:41;;;;;;;1.40;1.10;;;-1.30;99.90;;;;;;5069865;28;20165;-72
2022/01/29 04:07:11;;;;;;;2.90;1.08;;;-1.50;99.90;;;;;;5069895;28;20208;-72
2022/01/29 04:09:39;;;;;;;4.32;1.38;;;-1.50;99.90;;;;;;5069862;28;20156;-72
2022/01/29 04:12:05;;;;;;;1.35;0.70;;;-1.70;99.90;;;;;;5069834;28;20179;-73
2022/01/29 04:14:37;;;;;;;1.70;0.80;;;-1.60;99.90;;;;;;5069699;28;20245;-72
2022/01/29 04:17:05;;;;;;;2.13;0.75;;;-1.70;99.90;;;;;;5069753;28;20211;-73
2022/01/29 04:19:31;;;;;;;2.72;0.98;;;-1.70;99.90;;;;;;5069673;28;20169;-74
2022/01/29 04:21:58;;;;;;;4.80;1.02;;;-1.90;99.90;;;;;;5069730;28;20676;-73
2022/01/29 04:24:24;;;;;;;4.38;1.42;;;-2.00;99.90;;;;;;5069748;28;20244;-72
2022/01/29 04:26:50;;;;;;;1.88;0.98;;;-2.20;99.90;;;;;;5068866;28;20160;-73
2022/01/29 04:29:16;;;;;;;1.50;0.60;;;-2.30;99.90;;;;;;5069666;28;20161;-73
2022/01/29 04:32:05;;;;;;;1.00;0.82;;;-2.30;99.90;;;;;;5069308;28;20187;-73
2022/01/29 04:34:31;;;;;;;3.47;1.48;;;-2.40;99.90;;;;;;5069234;28;20176;-73
2022/01/29 04:36:57;;;;;;;1.75;0.82;;;-2.40;99.90;;;;;;5069244;28;20606;-74
2022/01/29 04:39:23;;;;;;;1.02;0.95;;;-2.40;99.90;;;;;;5067884;28;20587;-74
2022/01/29 04:41:49;;;;;;;7.18;1.48;;;-2.50;99.90;;;;;;5069240;28;20212;-74
2022/01/29 04:44:17;;;;;;;5.03;1.05;;;-2.50;99.90;;;;;;5069382;28;20164;-74
2022/01/29 04:46:44;;;;;;;1.42;1.00;;;-2.40;99.90;;;;;;5069336;28;20183;-74
2022/01/29 04:49:10;;;;;;;1.98;0.88;;;-2.40;99.90;;;;;;5069365;28;20172;-74
2022/01/29 04:51:36;;;;;;;3.60;1.02;;;-2.40;99.90;;;;;;5069424;28;20161;-74
2022/01/29 04:54:02;;;;;;;4.03;1.95;;;-2.50;99.90;;;;;;5069197;28;20164;-74
2022/01/29 04:56:28;;;;;;;1.75;1.02;;;-2.60;99.90;;;;;;5069217;28;20192;-74
2022/01/29 04:58:54;;;;;;;0.80;0.57;;;-2.60;99.90;;;;;;5069009;28;20204;-74
2022/01/29 05:01:20;;;;;;;1.90;0.82;;;-2.70;99.90;;;;;;5068903;28;20232;-74
2022/01/29 05:03:45;;;;;;;1.55;0.98;;;-2.80;99.90;;;;;;5069180;28;20163;-74
2022/01/29 05:06:12;;;;;;;1.25;0.95;;;-2.80;99.90;;;;;;5069200;28;20216;-74
2022/01/29 05:08:39;;;;;;;2.80;1.40;;;-2.70;99.90;;;;;;5068775;28;20201;-74
2022/01/29 05:11:07;;;;;;;3.97;1.33;;;-2.70;99.90;;;;;;5068914;28;20157;-74
2022/01/29 05:13:36;;;;;;;2.88;1.42;;;-2.50;99.90;;;;;;5069117;28;20176;-73
2022/01/29 05:27:04;;;;;;;2.65;1.25;;;-2.60;99.90;;;;;;5068796;28;20278;-73
2022/01/29 05:29:33;;;;;;;2.40;0.93;;;-2.40;99.90;;;;;;5068889;28;20181;-73
2022/01/29 05:32:01;;;;;;;2.80;0.98;;;-2.40;99.90;;;;;;5068825;28;20160;-75
2022/01/29 05:34:27;;;;;;;4.43;1.40;;;-2.40;99.90;;;;;;5068901;28;20157;-75
2022/01/29 05:36:55;;;;;;;3.60;1.75;;;-2.40;99.90;;;;;;5068653;28;20164;-75
2022/01/29 05:39:24;;;;;;;1.88;1.58;;;-2.40;99.90;;;;;;5072296;28;20161;-72
2022/01/29 05:41:50;;;;;;;5.43;2.47;;;-2.40;99.90;;;;;;5072589;28;20192;-74
2022/01/29 05:44:16;;;;;;;2.42;2.05;;;-2.40;99.90;;;;;;5072678;28;20164;-74
2022/01/29 05:46:42;;;;;;;2.78;2.05;;;-2.40;99.90;;;;;;5072401;28;20163;-74
2022/01/29 05:49:09;;;;;;;5.30;2.42;;;-2.40;99.90;;;;;;5072539;28;20271;-74
2022/01/29 05:51:35;;;;;;;3.75;2.70;;;-2.50;99.90;;;;;;5072491;28;20179;-74
2022/01/29 05:54:02;;;;;;;4.70;1.58;;;-2.50;99.90;;;;;;5072559;28;20224;-75
2022/01/29 05:56:29;;;;;;;1.63;1.25;;;-2.70;99.90;;;;;;5071233;28;20561;-75
2022/01/29 05:58:56;;;;;;;1.90;1.60;;;-2.80;99.90;;;;;;5072421;28;20196;-75
2022/01/29 06:01:22;;;;;;;1.52;1.08;;;-2.80;99.90;;;;;;5072260;28;20229;-75
2022/01/29 06:03:49;;;;;;;4.78;1.35;;;-2.90;99.90;;;;;;5072388;28;20642;-76
2022/01/29 06:06:15;;;;;;;1.70;1.23;;;-3.00;99.90;;;;;;5072431;28;20192;-75
2022/01/29 06:08:42;;;;;;;4.95;1.50;;;-3.10;99.90;;;;;;5072146;28;20180;-75
2022/01/29 06:11:08;;;;;;;4.50;2.30;;;-3.20;99.90;;;;;;5072493;28;20239;-73
2022/01/29 06:13:34;;;;;;;4.20;1.70;;;-3.20;99.90;;;;;;5072224;28;20658;-73
2022/01/29 06:16:03;;;;;;;2.05;1.50;;;-3.30;99.90;;;;;;5071998;28;20168;-74
2022/01/29 06:18:29;;;;;;;2.90;1.85;;;-3.30;99.90;;;;;;5071908;28;20207;-74
2022/01/29 06:20:57;;;;;;;3.22;2.08;;;-3.30;99.90;;;;;;5071809;28;20196;-75
2022/01/29 06:23:32;;;;;;;2.30;2.08;;;-3.30;99.90;;;;;;5071834;28;20157;-76
2022/01/29 06:26:00;;;;;;;10.27;5.15;;;-3.30;99.90;;;;;;5071906;28;20160;-76
2022/01/29 06:28:26;;;;;;;6.82;3.33;;;-3.30;99.90;;;;;;5071711;28;20188;-76
2022/01/29 06:30:52;;;;;;;8.52;4.35;;;-3.40;99.90;;;;;;5071821;28;20164;-77
2022/01/29 06:33:19;;;;;;;3.97;3.22;;;-3.30;99.90;;;;;;5071692;28;20157;-76
2022/01/29 06:35:45;;;;;;;3.03;2.42;;;-3.30;99.90;;;;;;5071833;28;20164;-75
2022/01/29 06:38:13;;;;;;;10.60;3.08;;;-3.40;99.90;;;;;;5071567;28;20196;-74
2022/01/29 06:40:41;;;;;;;3.85;2.50;;;-3.20;99.90;;;;;;5071588;28;20188;-75
2022/01/29 06:43:07;;;;;;;4.15;2.13;;;-3.10;99.90;;;;;;5071575;28;20161;-75
2022/01/29 06:45:35;;;;;;;3.70;1.70;;;-3.00;99.90;;;;;;5071546;28;20634;-76
2022/01/29 06:48:02;;;;;;;6.80;2.17;;;-2.90;99.90;;;;;;5071418;28;20184;-76
2022/01/29 06:50:28;;;;;;;3.15;1.73;;;-3.00;99.90;;;;;;5070765;28;20165;-73
2022/01/29 06:52:54;;;;;;;3.00;1.45;;;-3.00;99.90;;;;;;5071351;28;20634;-74
2022/01/29 06:55:21;;;;;;;5.85;2.28;;;-2.90;99.90;;;;;;5071245;28;20157;-76
2022/01/29 06:57:47;;;;;;;2.90;1.63;;;-2.90;99.90;;;;;;5071249;28;20188;-75
2022/01/29 07:00:15;;;;;;;5.35;2.10;;;-2.80;99.90;;;;;;5070872;28;20258;-75
2022/01/29 07:02:40;;;;;;;2.20;2.00;;;-2.80;99.90;;;;;;5071089;28;20180;-74
2022/01/29 07:05:09;;;;;;;3.67;2.70;;;-2.70;99.90;;;;;;5070922;28;20145;-77
2022/01/29 07:07:35;;;;;;;2.33;1.90;;;-2.70;99.90;;;;;;5071060;28;20191;-75
2022/01/29 07:10:03;;;;;;;3.15;1.65;;;-2.50;99.90;;;;;;5070870;28;20161;-74
2022/01/29 07:12:29;;;;;;;1.85;1.52;;;-2.30;99.90;;;;;;5070962;28;20224;-77
2022/01/29 07:14:55;;;;;;;3.53;2.03;;;-2.10;99.90;;;;;;5070828;28;20161;-74
2022/01/29 07:17:22;;;;;;;3.05;2.22;;;-2.00;99.90;;;;;;5070784;28;20196;-74
2022/01/29 07:19:50;;;;;;;4.40;1.80;;;-1.80;99.90;;;;;;5070729;28;20641;-74
2022/01/29 07:22:17;;;;;;;3.55;1.40;;;-1.60;99.90;;;;;;5070445;28;20257;-78
2022/01/29 07:24:43;;;;;;;2.20;1.70;;;-1.40;99.90;;;;;;5070848;28;20176;-77
2022/01/29 07:27:09;;;;;;;5.20;1.95;;;-1.30;99.90;;;;;;5070644;28;20219;-76
2022/01/29 07:29:35;;;;;;;1.98;1.27;;;-1.20;99.90;;;;;;5070642;28;20240;-76
2022/01/29 07:32:02;;;;;;;2.92;1.30;;;-0.90;99.90;;;;;;5070733;28;20173;-76
2022/01/29 07:34:29;;;;;;;4.25;1.42;;;-0.90;99.90;;;;;;5070687;28;20157;-76
2022/01/29 07:36:56;;;;;;;4.97;1.88;;;-0.80;99.90;;;;;;5070797;28;20161;-76
2022/01/29 07:39:23;;;;;;;1.35;1.17;;;-0.70;99.90;;;;;;5070471;28;20165;-76
2022/01/29 07:41:49;;;;;;;2.65;1.63;;;-0.60;99.90;;;;;;5069088;28;20192;-82
2022/01/29 07:44:16;;;;;;;2.63;1.42;;;-0.50;99.90;;;;;;5088330;28;20731;-78
2022/01/29 07:46:42;;;;;;;5.85;1.50;;;-0.50;99.90;;;;;;5089980;28;20156;-79
2022/01/29 07:49:09;;;;;;;11.07;3.13;;;-0.40;99.90;;;;;;5090137;28;20207;-79
2022/01/29 07:51:36;;;;;;;7.60;1.80;;;-0.30;99.90;;;;;;5090102;28;20210;-74
2022/01/29 07:54:03;;;;;;;5.55;1.60;;;-0.20;99.90;;;;;;5090268;28;20167;-74
2022/01/29 07:56:28;;;;;;;9.35;1.98;;;0.00;99.90;;;;;;5089621;28;20225;-74
2022/01/29 07:58:54;;;;;;;3.42;1.85;;;0.30;99.90;;;;;;5090105;28;20231;-75
2022/01/29 08:01:20;;;;;;;2.88;1.67;;;0.50;99.90;;;;;;5088989;28;20230;-74
2022/01/29 08:03:48;;;;;;;2.25;1.88;;;0.70;99.90;;;;;;5090014;28;20551;-74
2022/01/29 08:06:16;;;;;;;3.03;1.55;;;1.00;99.90;;;;;;5089855;28;20164;-75
2022/01/29 08:08:42;;;;;;;4.95;1.52;;;1.20;99.90;;;;;;5089807;28;20241;-76
2022/01/29 08:11:09;;;;;;;5.18;1.58;;;1.40;99.90;;;;;;5090021;28;20694;-77
2022/01/29 08:13:39;;;;;;;1.48;1.38;;;1.90;99.90;;;;;;5087606;28;20211;-76
2022/01/29 08:16:05;;;;;;;4.30;2.05;;;2.30;99.90;;;;;;5088375;28;20235;-75
2022/01/29 08:18:31;;;;;;;8.13;2.42;;;2.80;99.90;;;;;;5089689;28;20197;-75
2022/01/29 08:20:57;;;;;;;6.05;2.58;;;3.30;99.90;;;;;;5089430;28;20188;-76
2022/01/29 08:23:23;;;;;;;3.65;2.42;;;3.50;99.90;;;;;;5089365;28;20192;-75
2022/01/29 08:25:50;;;;;;;2.28;1.98;;;3.50;99.90;;;;;;5079431;28;20219;-75
2022/01/29 08:28:16;;;;;;;5.75;2.13;;;3.50;99.90;;;;;;5069116;28;20200;-75
2022/01/29 08:30:43;;;;;;;5.50;2.00;;;4.00;99.90;;;;;;5081007;28;20172;-75
2022/01/29 08:33:11;;;;;;;4.32;2.25;;;6.50;99.90;;;;;;5089366;28;20164;-75
2022/01/29 08:35:37;;;;;;;3.92;2.17;;;8.10;99.90;;;;;;5079583;28;20185;-75
2022/01/29 08:38:03;;;;;;;9.88;2.47;;;7.10;99.90;;;;;;5069035;28;20234;-75
2022/01/29 08:40:29;;;;;;;4.28;2.35;;;6.20;99.90;;;;;;5068906;28;20163;-75
2022/01/29 08:42:55;;;;;;;4.60;1.98;;;5.30;99.90;;;;;;5067881;28;20195;-75
2022/01/29 08:45:21;;;;;;;7.95;2.65;;;4.50;99.90;;;;;;5069111;28;20173;-75
2022/01/29 08:47:47;;;;;;;8.50;2.15;;;4.20;99.90;;;;;;5069157;28;20200;-75
2022/01/29 08:50:13;;;;;;;11.55;3.17;;;4.20;99.90;;;;;;5068894;28;20157;-74
2022/01/29 08:52:40;;;;;;;9.05;3.28;;;4.00;99.90;;;;;;5078141;28;20179;-75
2022/01/29 08:55:08;;;;;;;10.40;2.40;;;3.80;99.90;;;;;;5083824;28;20267;-74
2022/01/29 08:57:34;;;;;;;6.72;2.20;;;3.90;99.90;;;;;;5088631;28;20214;-74
2022/01/29 09:00:00;;;;;;;3.28;2.65;;;3.80;99.90;;;;;;5088521;28;20224;-74
2022/01/29 09:02:26;;;;;;;11.05;3.08;;;4.00;99.90;;;;;;5088800;28;20664;-74
2022/01/29 09:04:57;;;;;;;14.55;2.42;;;4.30;99.90;;;;;;5087796;28;20629;-74
2022/01/29 09:07:24;;;;;;;6.68;2.17;;;4.60;99.90;;;;;;5069235;28;20204;-75
2022/01/29 09:09:50;;;;;;;10.40;2.78;;;4.70;99.90;;;;;;5068426;28;20185;-74
2022/01/29 09:12:15;;;;;;;4.07;1.95;;;5.00;99.90;;;;;;5068653;28;20164;-75
2022/01/29 09:14:42;;;;;;;5.35;2.72;;;5.20;99.90;;;;;;5068832;28;20157;-74
2022/01/29 09:17:08;;;;;;;8.00;2.10;;;5.40;99.90;;;;;;5068650;28;20196;-75
2022/01/29 09:19:34;;;;;;;6.38;2.80;;;5.70;99.90;;;;;;5068374;28;20165;-76
2022/01/29 09:22:00;;;;;;;9.88;3.35;;;6.00;99.90;;;;;;5068694;28;20204;-75
2022/01/29 09:24:26;;;;;;;7.45;3.95;;;6.60;99.90;;;;;;5068762;28;20195;-75
2022/01/29 09:26:52;;;;;;;13.00;3.67;;;6.70;99.90;;;;;;5068487;28;20192;-74
2022/01/29 09:29:18;;;;;;;13.13;4.25;;;6.20;99.90;;;;;;5077612;28;20179;-74
2022/01/29 09:31:44;;;;;;;10.82;4.60;;;5.90;99.90;;;;;;5088554;28;20160;-74
2022/01/29 09:34:10;;;;;;;11.48;3.53;;;5.60;99.90;;;;;;5080087;28;20184;-74
2022/01/29 09:36:35;;;;;;;6.38;3.78;;;5.30;99.90;;;;;;5088512;28;20180;-74
2022/01/29 09:39:01;;;;;;;8.60;3.30;;;5.50;99.90;;;;;;5086252;28;20167;-75
2022/01/29 09:41:28;;;;;;;9.85;3.75;;;5.50;99.90;;;;;;5078783;28;20223;-75
2022/01/29 09:43:56;;;;;;;9.73;3.90;;;5.50;99.90;;;;;;5076282;28;20217;-75
2022/01/29 09:46:26;;;;;;;12.02;4.22;;;5.50;99.90;;;;;;5072597;28;20180;-75
2022/01/29 09:48:53;;;;;;;8.82;3.47;;;5.50;99.90;;;;;;5083444;28;20196;-75
2022/01/29 09:51:19;;;;;;;8.38;3.50;;;5.60;99.90;;;;;;5085482;28;20200;-75
2022/01/29 09:53:46;;;;;;;9.80;3.53;;;5.70;99.90;;;;;;5088617;28;20186;-76
2022/01/29 09:56:14;;;;;;;6.43;3.47;;;7.10;99.90;;;;;;5088506;28;20172;-78
2022/01/29 09:58:41;;;;;;;9.35;3.88;;;9.50;99.90;;;;;;5086819;28;20196;-79
2022/01/29 10:01:07;;;;;;;15.10;3.22;;;10.50;99.90;;;;;;5087956;28;20219;-80
2022/01/29 10:03:34;;;;;;;9.05;3.72;;;10.30;99.90;;;;;;5087074;28;20692;-78
2022/01/29 10:06:01;;;;;;;6.95;3.67;;;10.10;99.90;;;;;;5088651;28;20251;-76
2022/01/29 10:08:28;;;;;;;9.20;3.53;;;9.60;99.90;;;;;;5088619;28;20216;-79
2022/01/29 10:10:57;;;;;;;6.43;3.38;;;9.10;99.90;;;;;;5088219;28;20191;-76
2022/01/29 10:13:28;;;;;;;11.20;3.72;;;8.70;99.90;;;;;;5087307;28;20621;-75
2022/01/29 10:16:11;;;;;;;7.00;3.38;;;8.40;99.90;;;;;;5088526;28;20164;-74
2022/01/29 10:18:38;;;;;;;8.43;3.60;;;8.70;99.90;;;;;;5088271;28;20168;-75
2022/01/29 10:21:12;;;;;;;10.82;3.95;;;9.10;99.90;;;;;;5087891;28;20191;-75
2022/01/29 10:23:39;;;;;;;10.13;3.25;;;9.70;99.90;;;;;;5088114;28;20156;-75
2022/01/29 10:26:07;;;;;;;8.65;4.25;;;10.30;99.90;;;;;;5090755;28;20184;-78
2022/01/29 10:28:33;;;;;;;16.45;3.42;;;9.90;99.90;;;;;;5091721;28;20160;-84
2022/01/29 10:31:01;;;;;;;11.90;4.32;;;9.60;99.90;;;;;;5091335;28;20164;-75
2022/01/29 10:33:30;;;;;;;8.07;3.47;;;10.50;99.90;;;;;;5090290;28;20172;-77
2022/01/29 10:36:02;;;;;;;10.10;3.30;;;11.10;99.90;;;;;;5089513;28;20168;-76
2022/01/29 10:38:50;;;;;;;12.00;2.88;;;11.80;99.90;;;;;;5082508;28;20173;-78
2022/01/29 10:41:25;;;;;;;9.05;3.22;;;13.40;98.30;;;;;;5075192;28;20224;-75
2022/01/29 10:44:02;;;;;;;9.93;2.85;;;12.90;97.50;;;;;;5073613;28;20191;-76
2022/01/29 10:46:30;;;;;;;7.63;2.80;;;12.70;97.80;;;;;;5075685;28;20179;-75
2022/01/29 10:48:57;;;;;;;4.28;2.70;;;13.00;97.20;;;;;;5083295;28;20184;-75
2022/01/29 10:51:24;;;;;;;14.38;3.45;;;13.40;98.10;;;;;;5071111;28;20189;-76
2022/01/29 10:53:51;;;;;;;4.53;2.20;;;14.40;96.90;;;;;;5070038;28;20183;-76
2022/01/29 10:56:17;;;;;;;5.68;3.03;;;14.60;96.30;;;;;;5070020;28;20207;-75
2022/01/29 10:58:46;;;;;;;8.82;2.88;;;15.00;95.40;;;;;;5071441;28;20157;-79
2022/01/29 11:01:17;;;;;;;4.53;2.97;;;14.30;95.20;;;;;;5070501;28;20251;-77
2022/01/29 11:03:44;;;;;;;8.13;3.03;;;13.70;96.50;;;;;;5071089;28;20153;-75
2022/01/29 11:06:13;;;;;;;11.05;3.40;;;14.00;96.10;;;;;;5071005;28;20202;-76
2022/01/29 11:08:40;;;;;;;6.43;3.05;;;14.80;95.90;;;;;;5070917;28;20211;-78
2022/01/29 11:11:08;;;;;;;6.97;2.30;;;14.70;94.00;;;;;;5068571;28;20157;-77
2022/01/29 11:13:36;;;;;;;11.02;3.28;;;12.30;96.00;;;;;;5070213;28;20228;-75
2022/01/29 11:16:03;;;;;;;7.38;2.58;;;11.50;97.40;;;;;;5070897;28;20161;-73
2022/01/29 11:18:32;;;;;;;5.88;2.50;;;11.90;98.80;;;;;;5069432;28;20197;-73
2022/01/29 11:20:59;;;;;;;9.00;2.92;;;12.70;96.20;;;;;;5070776;28;20296;-76
2022/01/29 11:23:26;;;;;;;9.35;2.65;;;13.10;95.70;;;;;;5070523;28;20157;-77
2022/01/29 11:25:58;;;;;;;6.40;2.70;;;13.60;95.70;;;;;;5069480;28;20195;-77
2022/01/29 11:28:26;;;;;;;3.88;2.58;;;13.00;95.20;;;;;;5070491;28;20711;-76
2022/01/29 11:31:13;;;;;;;3.88;2.33;;;12.80;95.20;;;;;;5070373;28;20164;-75
2022/01/29 11:33:57;;;;;;;5.25;2.22;;;12.70;95.70;;;;;;5070382;28;20153;-79
2022/01/29 11:36:49;;;;;;;4.78;2.47;;;13.10;95.10;;;;;;5070268;28;20235;-80
2022/01/29 11:39:35;;;;;;;6.97;2.83;;;13.10;95.50;;;;;;5070179;28;20220;-79
2022/01/29 11:42:13;;;;;;;5.10;2.00;;;13.00;95.20;;;;;;5069999;28;20211;-79
2022/01/29 11:44:40;;;;;;;3.22;2.00;;;12.60;95.00;;;;;;5070261;28;20161;-79
2022/01/29 11:47:27;;;;;;;6.57;2.08;;;11.90;95.30;;;;;;5070290;28;20165;-79
2022/01/29 11:50:18;;;;;;;4.70;2.20;;;12.60;96.50;;;;;;5069884;28;20281;-78
2022/01/29 11:52:55;;;;;;;3.72;2.17;;;13.10;95.50;;;;;;5069572;28;20180;-78
2022/01/29 11:55:33;;;;;;;4.78;2.70;;;13.70;94.90;;;;;;5069629;28;20161;-79
2022/01/29 11:58:15;;;;;;;2.75;1.60;;;14.10;94.50;;;;;;5068926;28;20183;-75
2022/01/29 12:00:44;;;;;;;2.80;1.77;;;14.00;93.20;;;;;;5068274;28;20564;-78
2022/01/29 12:03:35;;;;;;;3.17;1.70;;;13.70;93.70;;;;;;5069688;28;20153;-78
2022/01/29 12:06:31;;;;;;;3.15;1.52;;;13.90;93.80;;;;;;5069803;28;20187;-76
2022/01/29 12:09:18;;;;;;;2.90;1.48;;;14.20;92.00;;;;;;5069599;28;20200;-76
2022/01/29 12:12:17;;;;;;;4.88;1.85;;;14.40;91.90;;;;;;5088242;28;20168;-75
2022/01/29 12:14:44;;;;;;;3.88;1.80;;;13.70;92.80;;;;;;5089389;28;20193;-75
2022/01/29 12:17:11;;;;;;;9.35;2.17;;;14.10;94.00;;;;;;5089688;28;20156;-76
2022/01/29 12:19:45;;;;;;;5.53;2.25;;;13.90;94.00;;;;;;5089356;28;20192;-75
2022/01/29 12:22:15;;;;;;;4.20;2.15;;;13.90;93.20;;;;;;5088212;28;20239;-73
2022/01/29 12:24:48;;;;;;;2.38;1.50;;;13.60;93.80;;;;;;5089613;28;20205;-74
2022/01/29 12:27:14;;;;;;;3.92;1.90;;;13.70;92.70;;;;;;5089217;28;20562;-75
2022/01/29 12:29:40;;;;;;;2.97;1.60;;;13.30;93.40;;;;;;5069484;28;20167;-74
2022/01/29 12:32:08;;;;;;;2.90;1.33;;;13.40;92.60;;;;;;5069308;28;20202;-75
2022/01/29 12:34:34;;;;;;;10.77;1.52;;;12.50;94.00;;;;;;5069496;28;20161;-74
2022/01/29 12:37:26;;;;;;;3.30;1.73;;;12.30;93.60;;;;;;5069226;28;20161;-73
2022/01/29 12:40:06;;;;;;;4.68;1.48;;;11.10;95.50;;;;;;5068933;28;20203;-74
2022/01/29 12:42:44;;;;;;;4.68;1.45;;;10.50;96.50;;;;;;5068981;28;20680;-74
2022/01/29 12:45:12;;;;;;;2.40;1.20;;;10.00;96.50;;;;;;5069006;28;20155;-74
2022/01/29 12:47:37;;;;;;;1.75;1.50;;;9.40;97.10;;;;;;5068559;28;20148;-73
2022/01/29 12:50:04;;;;;;;4.97;1.90;;;9.20;97.20;;;;;;5068096;28;20160;-74
2022/01/29 12:52:31;;;;;;;3.08;1.65;;;9.00;97.60;;;;;;5068945;28;20200;-74
2022/01/29 12:55:02;;;;;;;6.10;1.92;;;8.80;97.80;;;;;;5069215;28;20567;-74
2022/01/29 12:58:01;;;;;;;4.43;1.73;;;8.90;97.80;;;;;;5068987;28;20199;-74
2022/01/29 13:00:26;;;;;;;5.13;1.58;;;8.80;98.40;;;;;;5049491;28;20247;-74
2022/01/29 13:03:01;;;;;;;4.38;1.55;;;9.00;98.10;;;;;;5066745;28;20180;-74
2022/01/29 13:05:28;;;;;;;5.78;1.83;;;8.80;98.10;;;;;;5066902;28;20163;-73
2022/01/29 13:07:53;;;;;;;2.65;1.50;;;8.70;98.70;;;;;;5085280;28;20208;-72